Time;durP1;ratioP1;P1;durP2;ratioP2;P2;SDS_P1;SDS_P2;PMS_P1;PMS_P2;Temp;Humidity;BMP_temperature;BMP_pressure;BME280_temperature;BME280_humidity;BME280_pressure;Samples;Min_cycle;Max_cycle;Signal;HPM_P1;HPM_P2
2023/11/04 00:00:05;;;;;;;15.25;2.50;;;;;;;7.38;100.00;97828.75;5076028;28;20116;-71
2023/11/04 00:02:50;;;;;;;16.00;2.88;;;;;;;7.38;100.00;97816.88;5094288;28;20573;-71
2023/11/04 00:05:34;;;;;;;10.13;1.85;;;;;;;7.39;100.00;97807.47;5076173;28;20036;-71
2023/11/04 00:08:18;;;;;;;18.13;3.22;;;;;;;7.41;100.00;97801.59;5091168;28;20397;-71
2023/11/04 00:11:02;;;;;;;12.38;2.35;;;;;;;7.43;100.00;97799.28;5079470;28;20043;-71
2023/11/04 00:13:46;;;;;;;12.70;2.85;;;;;;;7.41;100.00;97787.78;5076261;28;20089;-71
2023/11/04 00:16:30;;;;;;;16.63;2.47;;;;;;;7.44;100.00;97770.53;5089827;28;20089;-72
2023/11/04 00:19:14;;;;;;;15.18;2.75;;;;;;;7.48;100.00;97752.16;5062321;28;20043;-71
2023/11/04 00:21:59;;;;;;;14.68;2.83;;;;;;;7.46;100.00;97735.09;5067967;28;20079;-71
2023/11/04 00:24:43;;;;;;;14.40;2.85;;;;;;;7.45;100.00;97722.44;5083551;28;20177;-71
2023/11/04 00:27:27;;;;;;;14.00;2.92;;;;;;;7.44;100.00;97710.59;5086703;28;20098;-71
2023/11/04 00:30:13;;;;;;;10.80;2.55;;;;;;;7.46;100.00;97701.97;5061772;28;20039;-71
2023/11/04 00:32:57;;;;;;;15.32;2.55;;;;;;;7.44;100.00;97696.81;5086088;28;20035;-71
2023/11/04 00:35:41;;;;;;;17.10;2.65;;;;;;;7.47;100.00;97678.75;5079133;28;20032;-71
2023/11/04 00:38:25;;;;;;;16.80;3.10;;;;;;;7.46;100.00;97671.59;5076551;28;20541;-71
2023/11/04 00:41:09;;;;;;;15.98;2.80;;;;;;;7.50;100.00;97653.19;5086294;28;20074;-71
2023/11/04 00:43:53;;;;;;;11.13;2.90;;;;;;;7.48;100.00;97648.00;5076238;28;20044;-71
2023/11/04 00:46:38;;;;;;;12.27;2.50;;;;;;;7.47;100.00;97631.81;5077260;28;20435;-71
2023/11/04 00:49:22;;;;;;;15.48;3.00;;;;;;;7.48;100.00;97627.88;5077072;28;20036;-71
2023/11/04 00:52:06;;;;;;;17.77;3.20;;;;;;;7.48;100.00;97605.78;5049149;28;20044;-71
2023/11/04 00:54:50;;;;;;;17.63;3.22;;;;;;;7.48;100.00;97601.06;5090446;28;20491;-71
2023/11/04 00:57:34;;;;;;;14.65;3.08;;;;;;;7.47;100.00;97590.38;5076040;28;20110;-71
2023/11/04 01:00:23;;;;;;;14.48;3.70;;;;;;;7.46;100.00;97569.41;5077607;28;20093;-71
2023/11/04 01:03:07;;;;;;;15.38;3.10;;;;;;;7.45;100.00;97557.56;5091078;28;20039;-71
2023/11/04 01:05:52;;;;;;;16.30;3.33;;;;;;;7.42;100.00;97541.69;5088633;28;20434;-71
2023/11/04 01:08:36;;;;;;;18.65;4.07;;;;;;;7.44;100.00;97527.53;5084435;28;20075;-71
2023/11/04 01:11:20;;;;;;;18.25;3.78;;;;;;;7.44;100.00;97522.00;5085294;28;20087;-71
2023/11/04 01:14:04;;;;;;;20.88;4.18;;;;;;;7.44;100.00;97516.50;5083581;28;20035;-71
2023/11/04 01:16:48;;;;;;;15.52;3.22;;;;;;;7.43;100.00;97503.84;5085335;28;20035;-71
2023/11/04 01:19:32;;;;;;;15.35;3.45;;;;;;;7.42;100.00;97480.97;5077910;28;20114;-71
2023/11/04 01:22:16;;;;;;;21.10;4.47;;;;;;;7.43;100.00;97476.22;5077657;28;20389;-71
2023/11/04 01:25:01;;;;;;;21.77;4.35;;;;;;;7.43;100.00;97473.47;5079373;28;20119;-71
2023/11/04 01:27:45;;;;;;;24.75;4.15;;;;;;;7.45;100.00;97457.38;5079433;28;20070;-71
2023/11/04 01:30:29;;;;;;;17.70;3.95;;;;;;;7.46;100.00;97453.44;5080831;28;20042;-71
2023/11/04 01:33:13;;;;;;;22.83;4.00;;;;;;;7.46;100.00;97448.72;5099824;28;20043;-71
2023/11/04 01:35:57;;;;;;;14.52;3.28;;;;;;;7.49;100.00;97436.19;5100120;28;20510;-71
2023/11/04 01:38:42;;;;;;;18.70;3.15;;;;;;;7.53;100.00;97412.25;5084874;28;20070;-71
2023/11/04 01:41:26;;;;;;;23.08;3.38;;;;;;;7.53;100.00;97409.50;5092360;28;20046;-71
2023/11/04 01:44:10;;;;;;;26.35;3.50;;;;;;;7.55;100.00;97401.63;5087609;28;20039;-72
2023/11/04 01:46:54;;;;;;;19.00;3.17;;;;;;;7.58;100.00;97389.91;5067601;28;20036;-71
2023/11/04 01:49:38;;;;;;;19.35;3.20;;;;;;;7.58;100.00;97378.88;5064908;28;20392;-71
2023/11/04 01:52:22;;;;;;;24.70;3.80;;;;;;;7.61;100.00;97367.13;5078729;28;20039;-71
2023/11/04 01:55:07;;;;;;;18.02;3.67;;;;;;;7.64;100.00;97360.91;5079733;28;20044;-71
2023/11/04 01:57:51;;;;;;;24.00;3.10;;;;;;;7.65;100.00;97356.16;5078918;28;20062;-71
2023/11/04 02:00:35;;;;;;;18.67;3.63;;;;;;;7.66;100.00;97342.03;5082759;28;20093;-72
2023/11/04 02:03:19;;;;;;;19.30;3.40;;;;;;;7.70;100.00;97331.84;5094353;28;20094;-72
2023/11/04 02:06:04;;;;;;;18.13;4.28;;;;;;;7.71;100.00;97319.63;5099979;28;20035;-72
2023/11/04 02:08:48;;;;;;;20.58;3.55;;;;;;;7.74;100.00;97321.69;5088755;28;20039;-72
2023/11/04 02:11:32;;;;;;;20.13;3.50;;;;;;;7.74;100.00;97312.59;5087914;28;20055;-72
2023/11/04 02:14:16;;;;;;;21.40;3.63;;;;;;;7.75;100.00;97292.94;5084097;28;20059;-72
2023/11/04 02:17:00;;;;;;;24.75;3.40;;;;;;;7.79;100.00;97273.69;5079357;28;20050;-71
2023/11/04 02:19:45;;;;;;;16.52;2.90;;;;;;;7.82;100.00;97253.63;5079502;28;20047;-72
2023/11/04 02:22:28;;;;;;;19.27;3.40;;;;;;;7.79;100.00;97254.34;5079349;28;20047;-71
2023/11/04 02:25:15;;;;;;;21.33;3.08;;;;;;;7.84;100.00;97237.50;5079234;28;20043;-72
2023/11/04 02:27:59;;;;;;;15.35;2.50;;;;;;;7.84;100.00;97227.25;5078107;28;20043;-71
2023/11/04 02:30:43;;;;;;;19.00;3.05;;;;;;;7.86;100.00;97217.84;5091229;28;20040;-72
2023/11/04 02:33:27;;;;;;;16.25;2.50;;;;;;;7.87;100.00;97202.84;5078806;28;20093;-71
2023/11/04 02:36:12;;;;;;;21.85;3.03;;;;;;;7.89;100.00;97190.28;5087796;28;20035;-72
2023/11/04 02:38:56;;;;;;;17.70;2.95;;;;;;;7.89;100.00;97173.69;5085480;28;20575;-72
2023/11/04 02:41:40;;;;;;;21.10;3.10;;;;;;;7.92;100.00;97167.47;5085273;28;20090;-72
2023/11/04 02:44:24;;;;;;;12.20;2.33;;;;;;;7.91;100.00;97154.00;5078414;28;20116;-72
2023/11/04 02:47:08;;;;;;;22.38;3.20;;;;;;;7.94;100.00;97128.41;5079022;28;20044;-71
2023/11/04 02:49:52;;;;;;;16.20;2.40;;;;;;;7.93;100.00;97124.03;5078698;28;20043;-71
2023/11/04 02:52:36;;;;;;;20.50;2.95;;;;;;;7.94;100.00;97109.06;5078798;28;20066;-72
2023/11/04 02:55:20;;;;;;;17.13;2.78;;;;;;;7.97;100.00;97091.78;5078238;28;20048;-72
2023/11/04 02:58:04;;;;;;;16.73;2.78;;;;;;;7.96;100.00;97073.59;5078566;28;20063;-72
2023/11/04 03:00:48;;;;;;;18.63;2.63;;;;;;;7.98;100.00;97057.47;5063318;28;20086;-72
2023/11/04 03:03:32;;;;;;;11.25;2.17;;;;;;;7.99;100.00;97029.44;5083660;28;20063;-72
2023/11/04 03:06:23;;;;;;;14.43;2.90;;;;;;;8.02;100.00;97017.69;5097500;28;20065;-72
2023/11/04 03:09:07;;;;;;;13.65;2.50;;;;;;;8.03;100.00;97008.22;5077306;28;20075;-72
2023/11/04 03:11:52;;;;;;;17.30;2.70;;;;;;;8.04;100.00;96986.91;5088399;28;20047;-72
2023/11/04 03:14:36;;;;;;;15.02;2.10;;;;;;;8.04;100.00;96965.59;5081854;28;20043;-72
2023/11/04 03:17:20;;;;;;;13.07;2.10;;;;;;;8.05;100.00;96958.94;5078168;28;20391;-72
2023/11/04 03:20:05;;;;;;;15.57;2.65;;;;;;;8.07;100.00;96934.47;5086935;28;20047;-72
2023/11/04 03:22:50;;;;;;;11.30;1.58;;;;;;;8.10;100.00;96919.13;5080002;28;20044;-72
2023/11/04 03:25:34;;;;;;;14.55;1.75;;;;;;;8.12;100.00;96902.19;5078175;28;20071;-72
2023/11/04 03:28:18;;;;;;;10.95;1.65;;;;;;;8.13;100.00;96890.75;5078053;28;20043;-72
2023/11/04 03:31:03;;;;;;;17.45;2.20;;;;;;;8.14;100.00;96873.03;5077801;28;20063;-71
2023/11/04 03:33:47;;;;;;;9.30;1.52;;;;;;;8.15;100.00;96851.72;5080114;28;20035;-71
2023/11/04 03:36:32;;;;;;;9.68;1.83;;;;;;;8.16;100.00;96842.25;5097242;28;20047;-72
2023/11/04 03:39:16;;;;;;;8.63;1.40;;;;;;;8.19;100.00;96822.16;5090367;28;20396;-72
2023/11/04 03:42:00;;;;;;;7.40;1.23;;;;;;;8.19;100.00;96805.56;5076889;28;20499;-72
2023/11/04 03:44:44;;;;;;;4.80;1.25;;;;;;;8.19;100.00;96780.69;5076651;28;20518;-72
2023/11/04 03:47:28;;;;;;;7.78;1.10;;;;;;;8.19;100.00;96756.66;5076844;28;20065;-72
2023/11/04 03:50:12;;;;;;;7.07;1.05;;;;;;;8.23;100.00;96729.06;5077831;28;20093;-72
2023/11/04 03:52:56;;;;;;;5.93;1.10;;;;;;;8.23;100.00;96720.75;5077763;28;20044;-72
2023/11/04 03:55:40;;;;;;;5.78;0.80;;;;;;;8.23;100.00;96720.75;5077725;28;20511;-72
2023/11/04 03:58:24;;;;;;;5.05;1.00;;;;;;;8.23;100.00;96682.84;5076819;28;20039;-72
2023/11/04 04:01:08;;;;;;;9.23;1.50;;;;;;;8.25;100.00;96688.81;5084818;28;20046;-72
2023/11/04 04:03:52;;;;;;;8.13;1.55;;;;;;;8.25;100.00;96677.75;5092620;28;20035;-72
2023/11/04 04:06:36;;;;;;;5.18;0.75;;;;;;;8.26;100.00;96679.34;5093646;28;20044;-72
2023/11/04 04:09:20;;;;;;;7.25;1.27;;;;;;;8.26;100.00;96654.47;5089681;28;20434;-72
2023/11/04 04:12:05;;;;;;;5.47;0.93;;;;;;;8.28;100.00;96630.03;5089227;28;20050;-72
2023/11/04 04:14:49;;;;;;;4.95;0.82;;;;;;;8.29;100.00;96634.38;5077804;28;20040;-72
2023/11/04 04:17:34;;;;;;;6.38;1.00;;;;;;;8.31;100.00;96633.22;5078558;28;20110;-72
2023/11/04 04:20:20;;;;;;;3.25;0.57;;;;;;;8.31;100.00;96614.66;5076396;28;20434;-72
2023/11/04 04:23:04;;;;;;;5.13;0.77;;;;;;;8.32;100.00;96588.59;5083978;28;20098;-72
2023/11/04 04:25:48;;;;;;;2.90;0.93;;;;;;;8.37;100.00;96587.47;5081551;28;20067;-72
2023/11/04 04:28:33;;;;;;;3.40;0.52;;;;;;;8.35;100.00;96582.31;5080238;28;20468;-72
2023/11/04 04:31:17;;;;;;;3.22;0.50;;;;;;;8.36;100.00;96558.22;5084834;28;20035;-72
2023/11/04 04:34:01;;;;;;;3.58;0.43;;;;;;;8.34;100.00;96555.84;5096122;28;20067;-72
2023/11/04 04:36:46;;;;;;;3.08;0.40;;;;;;;8.38;100.00;96531.00;5097131;28;20071;-72
2023/11/04 04:39:30;;;;;;;2.65;0.40;;;;;;;8.40;100.00;96537.00;5077161;28;20380;-72
2023/11/04 04:42:14;;;;;;;1.52;0.30;;;;;;;8.41;100.00;96486.88;5082115;28;20511;-72
2023/11/04 04:44:58;;;;;;;2.97;0.40;;;;;;;8.41;100.00;96519.22;5082999;28;20098;-72
2023/11/04 04:47:42;;;;;;;0.55;0.25;;;;;;;8.43;100.00;96500.28;5087250;28;20058;-72
2023/11/04 04:50:26;;;;;;;2.10;0.30;;;;;;;8.48;100.00;96522.09;5097148;28;20088;-72
2023/11/04 04:53:10;;;;;;;1.33;0.20;;;;;;;8.47;100.00;96498.38;5097291;28;20031;-72
2023/11/04 04:55:54;;;;;;;2.03;0.30;;;;;;;8.49;100.00;96482.19;5098663;28;20043;-72
2023/11/04 04:58:39;;;;;;;1.67;0.63;;;;;;;8.50;100.00;96469.97;5101388;28;20034;-72
2023/11/04 05:01:23;;;;;;;0.73;0.20;;;;;;;8.55;100.00;96466.03;5100640;28;20399;-72
2023/11/04 05:04:07;;;;;;;1.70;0.40;;;;;;;8.55;100.00;96471.56;5098217;28;20054;-72
2023/11/04 05:06:51;;;;;;;1.05;0.43;;;;;;;8.55;100.00;96466.84;5093537;28;20131;-72
2023/11/04 05:09:35;;;;;;;3.50;0.68;;;;;;;8.60;100.00;96471.25;5080850;28;20437;-72
2023/11/04 05:12:20;;;;;;;1.17;0.60;;;;;;;8.62;100.00;96480.75;5094340;28;20055;-72
2023/11/04 05:15:04;;;;;;;0.80;0.45;;;;;;;8.65;100.00;96468.94;5087962;28;20043;-73
2023/11/04 05:17:48;;;;;;;1.02;0.50;;;;;;;8.68;100.00;96468.16;5083807;28;20075;-72
2023/11/04 05:20:33;;;;;;;0.60;0.35;;;;;;;8.69;100.00;96450.41;5080553;28;20043;-72
2023/11/04 05:23:17;;;;;;;0.93;0.40;;;;;;;8.76;100.00;96435.06;5089261;28;20090;-72
2023/11/04 05:26:01;;;;;;;1.45;0.30;;;;;;;8.73;100.00;96458.75;5082364;28;20096;-72
2023/11/04 05:28:45;;;;;;;1.45;0.40;;;;;;;8.76;100.00;96435.06;5079344;28;20437;-72
2023/11/04 05:31:29;;;;;;;1.40;0.30;;;;;;;8.78;100.00;96429.94;5079914;28;20094;-72
2023/11/04 05:34:13;;;;;;;0.38;0.35;;;;;;;8.81;100.00;96424.44;5079969;28;20043;-72
2023/11/04 05:36:57;;;;;;;0.80;0.20;;;;;;;8.86;100.00;96423.28;5076160;28;20110;-72
2023/11/04 05:39:41;;;;;;;0.60;0.15;;;;;;;8.92;100.00;96416.22;5089373;28;20067;-72
2023/11/04 05:42:25;;;;;;;0.75;0.20;;;;;;;8.94;100.00;96402.78;5079882;28;20066;-72
2023/11/04 05:45:09;;;;;;;0.40;0.20;;;;;;;8.97;100.00;96387.38;5079969;28;20079;-72
2023/11/04 05:47:53;;;;;;;1.55;0.30;;;;;;;8.98;100.00;96389.78;5080236;28;20082;-72
2023/11/04 05:50:37;;;;;;;0.17;0.17;;;;;;;9.02;100.00;96392.56;5088113;28;20120;-72
2023/11/04 05:53:22;;;;;;;1.65;0.20;;;;;;;9.04;100.00;96398.53;5082624;28;20507;-72
2023/11/04 05:56:07;;;;;;;0.70;0.28;;;;;;;9.07;100.00;96395.78;5079017;28;20039;-72
2023/11/04 05:58:51;;;;;;;2.40;0.20;;;;;;;9.05;100.00;96380.72;5088924;28;20059;-72
2023/11/04 06:01:35;;;;;;;0.40;0.30;;;;;;;9.10;100.00;96417.16;5094021;28;20038;-72
2023/11/04 06:04:19;;;;;;;0.63;0.20;;;;;;;9.14;100.00;96401.38;5094722;28;20089;-72
2023/11/04 06:07:03;;;;;;;1.02;0.30;;;;;;;9.15;100.00;96402.94;5087279;28;20507;-72
2023/11/04 06:09:47;;;;;;;0.38;0.30;;;;;;;9.15;100.00;96402.94;5082421;28;20047;-72
2023/11/04 06:12:31;;;;;;;1.13;0.22;;;;;;;9.17;100.00;96395.06;5094304;28;20074;-72
2023/11/04 06:15:15;;;;;;;0.77;0.35;;;;;;;9.18;100.00;96376.47;5088510;28;20030;-72
2023/11/04 06:18:00;;;;;;;0.47;0.20;;;;;;;9.18;100.00;96374.50;5081089;28;20051;-72
2023/11/04 06:20:44;;;;;;;0.65;0.20;;;;;;;9.20;100.00;96367.81;5077984;28;20035;-72
2023/11/04 06:23:28;;;;;;;0.85;0.28;;;;;;;9.19;100.00;96364.22;5079286;28;20495;-72
2023/11/04 06:26:12;;;;;;;0.20;0.20;;;;;;;9.16;100.00;96356.69;5078986;28;20040;-72
2023/11/04 06:28:56;;;;;;;1.08;0.20;;;;;;;9.13;100.00;96361.03;5060093;28;20051;-72
2023/11/04 06:31:40;;;;;;;1.10;0.30;;;;;;;9.12;100.00;96348.38;5090477;28;20434;-72
2023/11/04 06:34:24;;;;;;;2.67;0.40;;;;;;;9.10;100.00;96347.94;5086493;28;20082;-72
2023/11/04 06:37:08;;;;;;;2.67;0.38;;;;;;;9.07;100.00;96343.19;5082464;28;20044;-72
2023/11/04 06:39:52;;;;;;;2.67;0.30;;;;;;;9.04;100.00;96340.41;5091077;28;20038;-72
2023/11/04 06:42:36;;;;;;;2.13;0.40;;;;;;;9.03;100.00;96336.06;5077724;28;20105;-72
2023/11/04 06:45:20;;;;;;;1.65;0.40;;;;;;;9.01;100.00;96341.19;5078607;28;20043;-72
2023/11/04 06:48:05;;;;;;;1.73;0.52;;;;;;;9.01;100.00;96346.72;5078758;28;20036;-72
2023/11/04 06:50:49;;;;;;;2.78;0.40;;;;;;;9.00;100.00;96340.41;5077877;28;20043;-72
2023/11/04 06:53:33;;;;;;;4.07;0.55;;;;;;;8.97;100.00;96341.16;5078891;28;20060;-72
2023/11/04 06:56:18;;;;;;;2.30;0.30;;;;;;;8.95;100.00;96349.84;5077609;28;20388;-72
2023/11/04 06:59:02;;;;;;;5.30;0.60;;;;;;;8.99;100.00;96349.06;5078799;28;20113;-72
2023/11/04 07:01:49;;;;;;;2.47;0.40;;;;;;;8.99;100.00;96351.84;5092416;28;20684;-72
2023/11/04 07:04:34;;;;;;;2.63;0.40;;;;;;;8.97;100.00;96345.88;5091656;28;20086;-72
2023/11/04 07:07:20;;;;;;;7.03;0.73;;;;;;;9.02;100.00;96340.00;5087456;28;20043;-72
2023/11/04 07:10:06;;;;;;;3.10;0.73;;;;;;;9.04;100.00;96351.47;5078250;28;20055;-72
2023/11/04 07:12:50;;;;;;;6.43;1.35;;;;;;;9.05;100.00;96359.38;5092695;28;20043;-72
2023/11/04 07:15:37;;;;;;;8.43;1.05;;;;;;;9.09;100.00;96353.88;5089714;28;20490;-72
2023/11/04 07:18:21;;;;;;;9.85;1.15;;;;;;;9.07;100.00;96351.50;5085621;28;20483;-72
2023/11/04 07:21:05;;;;;;;4.18;0.80;;;;;;;9.09;100.00;96362.97;5080425;28;20040;-72
2023/11/04 07:23:49;;;;;;;7.32;1.40;;;;;;;9.11;100.00;96352.31;5070359;28;20470;-72
2023/11/04 07:26:34;;;;;;;11.65;1.35;;;;;;;9.12;100.00;96356.66;5087066;28;20065;-72
2023/11/04 07:29:18;;;;;;;8.82;1.80;;;;;;;9.15;100.00;96361.44;5078499;28;20387;-72
2023/11/04 07:32:04;;;;;;;9.45;1.30;;;;;;;9.15;100.00;96364.19;5077910;28;20035;-72
2023/11/04 07:34:49;;;;;;;11.98;1.95;;;;;;;9.14;100.00;96361.84;5078012;28;20051;-72
2023/11/04 07:37:33;;;;;;;11.48;1.58;;;;;;;9.15;100.00;96371.72;5084668;28;20058;-72
2023/11/04 07:40:17;;;;;;;12.95;1.83;;;;;;;9.14;100.00;96372.91;5081659;28;20051;-72
2023/11/04 07:43:01;;;;;;;13.02;2.15;;;;;;;9.14;100.00;96375.69;5077545;28;20114;-72
2023/11/04 07:45:45;;;;;;;11.65;2.03;;;;;;;9.13;100.00;96380.38;5085853;28;20088;-72
2023/11/04 07:48:29;;;;;;;15.50;1.92;;;;;;;9.13;100.00;96374.84;5080391;28;20086;-72
2023/11/04 07:51:14;;;;;;;19.02;2.38;;;;;;;9.13;100.00;96379.59;5077793;28;20035;-72
2023/11/04 07:53:59;;;;;;;9.32;2.20;;;;;;;9.12;100.00;96380.78;5087232;28;20077;-72
2023/11/04 07:56:43;;;;;;;15.60;2.63;;;;;;;9.14;100.00;96382.00;5078889;28;20043;-72
2023/11/04 07:59:27;;;;;;;16.30;2.78;;;;;;;9.11;100.00;96377.25;5077621;28;20400;-72
2023/11/04 08:02:11;;;;;;;17.23;2.35;;;;;;;9.17;100.00;96372.94;5094982;28;20042;-72
2023/11/04 08:04:55;;;;;;;18.48;2.90;;;;;;;9.23;100.00;96369.78;5091678;28;20051;-72
2023/11/04 08:07:39;;;;;;;24.55;2.97;;;;;;;9.29;100.00;96362.72;5084822;28;20057;-72
2023/11/04 08:10:24;;;;;;;20.10;3.22;;;;;;;9.38;100.00;96379.75;5086132;28;20039;-72
2023/11/04 08:13:08;;;;;;;25.42;3.83;;;;;;;9.45;100.00;96385.34;5078149;28;20530;-72
2023/11/04 08:15:52;;;;;;;32.47;3.90;;;;;;;9.49;100.00;96386.16;5077288;28;20085;-72
2023/11/04 08:18:36;;;;;;;36.10;4.38;;;;;;;9.54;100.00;96385.00;5077439;28;20389;-72
2023/11/04 08:21:21;;;;;;;33.83;4.85;;;;;;;9.59;100.00;96387.41;5077341;28;20063;-72
2023/11/04 08:24:05;;;;;;;31.23;4.85;;;;;;;9.60;100.00;96395.31;5077333;28;20039;-73
2023/11/04 08:26:50;;;;;;;28.13;4.80;;;;;;;9.63;100.00;96377.91;5077272;28;20086;-72
2023/11/04 08:29:34;;;;;;;34.45;4.75;;;;;;;9.67;100.00;96382.69;5082201;28;20094;-72
2023/11/04 08:32:18;;;;;;;41.03;5.15;;;;;;;9.70;100.00;96387.47;5079913;28;20090;-72
2023/11/04 08:35:02;;;;;;;36.22;5.80;;;;;;;9.70;100.00;96384.69;5091606;28;20111;-73
2023/11/04 08:37:46;;;;;;;35.95;5.45;;;;;;;9.71;100.00;96392.59;5081446;28;20079;-72
2023/11/04 08:40:30;;;;;;;38.50;5.45;;;;;;;9.72;100.00;96387.84;5081068;28;20043;-72
2023/11/04 08:43:14;;;;;;;36.72;5.38;;;;;;;9.75;100.00;96384.28;5080998;28;20090;-72
2023/11/04 08:45:58;;;;;;;41.90;5.30;;;;;;;9.78;100.00;96367.72;5080083;28;20105;-72
2023/11/04 08:48:42;;;;;;;39.28;5.63;;;;;;;9.83;100.00;96363.75;5085294;28;20074;-72
2023/11/04 08:51:26;;;;;;;44.30;6.63;;;;;;;9.87;100.00;96358.25;5099309;28;20047;-73
2023/11/04 08:54:13;;;;;;;35.38;5.07;;;;;;;9.93;100.00;96370.53;5088336;28;20141;-72
2023/11/04 08:56:58;;;;;;;40.03;5.78;;;;;;;9.96;100.00;96365.00;5086011;28;20047;-72
2023/11/04 08:59:42;;;;;;;50.40;6.45;;;;;;;10.05;100.00;96370.16;5081166;28;20097;-72
2023/11/04 09:02:26;;;;;;;45.90;5.57;;;;;;;10.09;100.00;96370.19;5077754;28;20102;-72
2023/11/04 09:05:11;;;;;;;44.97;6.22;;;;;;;10.13;100.00;96373.75;5096490;28;20113;-72
2023/11/04 09:07:55;;;;;;;50.00;7.57;;;;;;;10.17;100.00;96364.28;5085634;28;20062;-72
2023/11/04 09:10:39;;;;;;;41.75;6.03;;;;;;;10.21;100.00;96370.59;5080545;28;20173;-72
2023/11/04 09:13:23;;;;;;;40.05;7.00;;;;;;;10.22;100.00;96368.63;5093969;28;20094;-72
2023/11/04 09:16:09;;;;;;;50.40;8.40;;;;;;;10.25;100.00;96367.84;5080458;28;20054;-72
2023/11/04 09:18:55;;;;;;;51.47;7.53;;;;;;;10.25;100.00;96374.19;5080392;28;20120;-72
2023/11/04 09:21:40;;;;;;;54.67;7.10;;;;;;;10.26;100.00;96372.22;5080467;28;20036;-72
2023/11/04 09:24:23;;;;;;;52.33;7.72;;;;;;;10.28;100.00;96361.56;5084577;28;20514;-72
2023/11/04 09:27:08;;;;;;;44.17;6.53;;;;;;;10.32;100.00;96369.88;5087018;28;20158;-72
2023/11/04 09:29:52;;;;;;;44.30;6.95;;;;;;;10.35;100.00;96361.56;5079921;28;20097;-72
2023/11/04 09:32:36;;;;;;;57.00;7.90;;;;;;;10.40;100.00;96360.38;5080028;28;20058;-73
2023/11/04 09:35:21;;;;;;;55.42;7.63;;;;;;;10.42;100.00;96371.88;5078848;28;20035;-75
2023/11/04 09:38:05;;;;;;;50.88;6.63;;;;;;;10.43;100.00;96368.72;5080229;28;20416;-75
2023/11/04 09:40:48;;;;;;;43.53;5.97;;;;;;;10.46;100.00;96367.13;5093697;28;20095;-75
2023/11/04 09:43:33;;;;;;;44.65;7.07;;;;;;;10.46;100.00;96361.59;5077996;28;20039;-75
2023/11/04 09:46:16;;;;;;;49.38;6.55;;;;;;;10.54;100.00;96354.84;5079906;28;20102;-75
2023/11/04 09:49:00;;;;;;;46.45;7.93;;;;;;;10.60;100.00;96347.72;5087095;28;20042;-75
2023/11/04 09:51:44;;;;;;;54.88;7.85;;;;;;;10.78;100.00;96363.56;5086278;28;20384;-73
2023/11/04 09:54:29;;;;;;;47.28;7.50;;;;;;;10.89;100.00;96354.09;5085231;28;20035;-71
2023/11/04 09:57:16;;;;;;;49.90;7.55;;;;;;;11.06;100.00;96354.44;5078963;28;20522;-71
2023/11/04 10:00:01;;;;;;;49.88;7.00;;;;;;;11.23;100.00;96358.38;5067497;28;20039;-71
2023/11/04 10:02:45;;;;;;;42.47;7.03;;;;;;;11.36;100.00;96362.34;5065538;28;20063;-71
2023/11/04 10:05:29;;;;;;;43.58;6.15;;;;;;;11.50;100.00;96359.53;5098265;28;20039;-71
2023/11/04 10:08:13;;;;;;;43.03;6.40;;;;;;;11.66;100.00;96352.75;5080790;28;20067;-71
2023/11/04 10:10:58;;;;;;;40.20;5.80;;;;;;;11.79;100.00;96345.56;5080592;28;20157;-71
2023/11/04 10:13:42;;;;;;;39.88;5.68;;;;;;;11.90;100.00;96353.88;5089331;28;20048;-71
2023/11/04 10:16:29;;;;;;;34.97;6.65;;;;;;;11.96;100.00;96366.16;5079229;28;20523;-71
2023/11/04 10:19:13;;;;;;;36.45;5.00;;;;;;;12.04;100.00;96362.16;5077916;28;20039;-71
2023/11/04 10:21:57;;;;;;;31.63;4.57;;;;;;;12.12;100.00;96363.69;5069044;28;20503;-72
2023/11/04 10:24:41;;;;;;;36.70;5.40;;;;;;;12.08;100.00;96354.56;5078139;28;20070;-71
2023/11/04 10:27:25;;;;;;;30.77;4.40;;;;;;;12.05;100.00;96327.56;5063902;28;20384;-71
2023/11/04 10:30:10;;;;;;;33.70;4.65;;;;;;;12.02;100.00;96336.72;5078711;28;20119;-71
2023/11/04 10:32:54;;;;;;;33.38;4.45;;;;;;;12.01;100.00;96324.03;5069893;28;20085;-71
2023/11/04 10:35:38;;;;;;;32.95;4.47;;;;;;;11.98;100.00;96341.50;5081923;28;20552;-71
2023/11/04 10:38:22;;;;;;;36.85;5.05;;;;;;;11.96;100.00;96343.91;5069474;28;20043;-71
2023/11/04 10:41:06;;;;;;;28.73;3.95;;;;;;;11.93;100.00;96339.94;5052964;28;20097;-72
2023/11/04 10:44:02;;;;;;;21.05;3.28;;;;;;;11.90;100.00;96334.41;5077783;28;20549;-71
2023/11/04 10:46:53;;;;;;;17.10;2.78;;;;;;;11.87;100.00;96341.56;5077997;28;20160;-72
2023/11/04 10:49:56;;;;;;;16.98;3.08;;;;;;;11.88;100.00;96345.94;5077727;28;20051;-72
2023/11/04 10:52:45;;;;;;;15.70;2.10;;;;;;;11.89;100.00;96346.72;5090872;28;20043;-71
2023/11/04 10:55:31;;;;;;;18.38;3.30;;;;;;;11.89;100.00;96338.38;5085634;28;20081;-71
2023/11/04 10:58:29;;;;;;;18.48;2.55;;;;;;;11.87;100.00;96340.75;5080124;28;20059;-71
2023/11/04 11:01:14;;;;;;;15.90;2.78;;;;;;;11.89;100.00;96324.47;5087036;28;20130;-72
2023/11/04 11:04:03;;;;;;;19.42;3.60;;;;;;;11.91;100.00;96331.22;5069113;28;20447;-71
2023/11/04 11:06:47;;;;;;;25.25;3.28;;;;;;;11.95;100.00;96337.56;5092755;28;20158;-72
2023/11/04 11:09:31;;;;;;;17.42;2.85;;;;;;;11.98;100.00;96333.16;5076946;28;20071;-71
2023/11/04 11:12:24;;;;;;;16.60;3.13;;;;;;;11.98;100.00;96324.81;5091069;28;20128;-71
2023/11/04 11:15:09;;;;;;;15.23;2.20;;;;;;;11.95;100.00;96332.00;5071664;28;20043;-72
2023/11/04 11:17:57;;;;;;;15.32;2.60;;;;;;;11.93;100.00;96309.38;5065388;28;20079;-71
2023/11/04 11:20:41;;;;;;;19.33;2.80;;;;;;;11.93;100.00;96298.25;5063386;28;20035;-71
2023/11/04 11:23:26;;;;;;;16.83;2.72;;;;;;;11.92;100.00;96315.31;5078295;28;20624;-72
2023/11/04 11:26:15;;;;;;;21.00;3.10;;;;;;;11.91;100.00;96313.75;5062790;28;20100;-71
2023/11/04 11:29:00;;;;;;;24.20;3.60;;;;;;;11.85;100.00;96305.81;5063183;28;20066;-71
2023/11/04 11:31:44;;;;;;;21.10;3.03;;;;;;;11.88;100.00;96307.00;5071037;28;20038;-71
2023/11/04 11:34:28;;;;;;;19.25;3.80;;;;;;;11.90;100.00;96303.84;5086280;28;20055;-72
2023/11/04 11:37:12;;;;;;;20.73;3.28;;;;;;;11.88;100.00;96311.78;5079705;28;20137;-72
2023/11/04 11:39:57;;;;;;;14.73;3.00;;;;;;;11.82;100.00;96297.50;5056064;28;20246;-72
2023/11/04 11:42:41;;;;;;;21.75;3.58;;;;;;;11.82;100.00;96301.06;5076953;28;20454;-72
2023/11/04 11:45:25;;;;;;;23.55;3.90;;;;;;;11.89;100.00;96285.56;5062478;28;20099;-71
2023/11/04 11:48:09;;;;;;;24.27;3.08;;;;;;;11.97;100.00;96284.31;5076691;28;20089;-72
2023/11/04 11:50:53;;;;;;;30.25;4.30;;;;;;;11.95;100.00;96281.97;5076955;28;20116;-71
2023/11/04 11:53:38;;;;;;;33.17;4.32;;;;;;;11.89;100.00;96269.66;5054388;28;20051;-71
2023/11/04 11:56:22;;;;;;;27.55;3.75;;;;;;;11.88;100.00;96259.75;5082582;28;20486;-72
2023/11/04 11:59:06;;;;;;;28.90;5.85;;;;;;;11.91;100.00;96299.84;5062315;28;20038;-72
2023/11/04 12:01:52;;;;;;;25.33;4.57;;;;;;;11.89;100.00;96327.25;5092280;28;20096;-72
2023/11/04 12:04:37;;;;;;;27.38;3.95;;;;;;;11.84;100.00;96287.56;5091383;28;20399;-72
2023/11/04 12:07:20;;;;;;;28.67;5.10;;;;;;;11.79;100.00;96268.50;5086285;28;20388;-72
2023/11/04 12:10:06;;;;;;;18.08;3.05;;;;;;;11.74;100.00;96262.59;5077677;28;20052;-72
2023/11/04 12:12:51;;;;;;;12.25;2.30;;;;;;;11.64;100.00;96272.53;5076946;28;20574;-72
2023/11/04 12:15:35;;;;;;;13.65;2.92;;;;;;;11.70;100.00;96286.81;5077290;28;20040;-72
2023/11/04 12:18:19;;;;;;;8.43;1.40;;;;;;;11.74;100.00;96271.72;5048326;28;20090;-72
2023/11/04 12:21:04;;;;;;;7.20;1.98;;;;;;;11.67;100.00;96270.94;5090591;28;20605;-72
2023/11/04 12:23:49;;;;;;;9.20;1.98;;;;;;;11.67;100.00;96263.38;5077260;28;20039;-71
2023/11/04 12:26:33;;;;;;;11.65;1.65;;;;;;;11.66;100.00;96255.47;5086403;28;20038;-72
2023/11/04 12:29:19;;;;;;;8.18;1.60;;;;;;;11.68;100.00;96248.31;5078906;28;20503;-72
2023/11/04 12:32:04;;;;;;;7.32;1.77;;;;;;;11.69;100.00;96236.00;5080260;28;20093;-71
2023/11/04 12:34:51;;;;;;;12.25;2.05;;;;;;;11.71;100.00;96249.50;5087673;28;20595;-72
2023/11/04 12:37:35;;;;;;;18.55;3.00;;;;;;;11.71;100.00;96233.59;5082212;28;20096;-72
2023/11/04 12:40:20;;;;;;;19.15;2.75;;;;;;;11.76;100.00;96247.09;5079976;28;20047;-71
2023/11/04 12:43:04;;;;;;;18.30;2.70;;;;;;;11.80;100.00;96247.84;5062130;28;20075;-72
2023/11/04 12:45:48;;;;;;;20.90;3.83;;;;;;;11.84;100.00;96247.84;5075891;28;20067;-71